EZY3EG EGKK-LFMN
Flight info
| Callsign | EZY3EG |
|---|---|
| Flight time | 1h 23m |
| Altitude | 29000 |
| Route | BOGNA1X BOGNA L612 XAMAB/N0455F330 UL612 VEULE DCT KOTAP DCT KETEX DCT KOTIS DCT KUKOR DCT UTUVA DCT LERGA DCT LIQID DCT LATAM DCT TUNUR DCT NISAR NISAR7R |
| Aircraft | A32N/M-V/N |
Departure
| Time | 2026-04-14 14:25 |
|---|---|
| Airport | London Gatwick Airport (EGKK) |
Arrival
| Time | 2026-04-14 15:49 |
|---|---|
| Airport | Nice-Côte d'Azur Airport (LFMN) |
| Time | Latitude | Longitude | Altitude | Speed | Heading |
|---|---|---|---|---|---|
| 2026-04-14 13:50 | 51.15494 | -0.16906 | 212 ft | 0 kts | 349° |
| 2026-04-14 14:17 | 51.15464 | -0.16901 | 204 ft | 3 kts | 9° |
| 2026-04-14 14:17 | 51.15445 | -0.16910 | 204 ft | 3 kts | 41° |
| 2026-04-14 14:17 | 51.15436 | -0.16928 | 212 ft | 1 kts | 76° |
| 2026-04-14 14:17 | 51.15436 | -0.16930 | 212 ft | 1 kts | 77° |
| 2026-04-14 14:21 | 51.15436 | -0.16929 | 212 ft | 1 kts | 77° |
| 2026-04-14 14:21 | 51.15448 | -0.16849 | 212 ft | 12 kts | 76° |
| 2026-04-14 14:21 | 51.15429 | -0.16725 | 213 ft | 13 kts | 150° |
| 2026-04-14 14:21 | 51.15344 | -0.16690 | 213 ft | 13 kts | 165° |
| 2026-04-14 14:22 | 51.15261 | -0.16661 | 208 ft | 6 kts | 166° |
| 2026-04-14 14:22 | 51.15260 | -0.16660 | 208 ft | 0 kts | 166° |
| 2026-04-14 14:22 | 51.15251 | -0.16657 | 205 ft | 5 kts | 166° |
| 2026-04-14 14:22 | 51.15243 | -0.16654 | 207 ft | 0 kts | 166° |
| 2026-04-14 14:24 | 51.15242 | -0.16653 | 205 ft | 2 kts | 166° |
| 2026-04-14 14:24 | 51.15174 | -0.16637 | 205 ft | 16 kts | 184° |
| 2026-04-14 14:24 | 51.15123 | -0.16782 | 209 ft | 29 kts | 256° |
| 2026-04-14 14:25 | 51.15026 | -0.17474 | 214 ft | 99 kts | 258° |
| 2026-04-14 14:25 | 51.14831 | -0.18857 | 210 ft | 154 kts | 257° |
| 2026-04-14 14:25 | 51.14613 | -0.20678 | 471 ft | 178 kts | 255° |
| 2026-04-14 14:25 | 51.14342 | -0.22654 | 1146 ft | 187 kts | 251° |
| 2026-04-14 14:26 | 51.14020 | -0.24754 | 1675 ft | 202 kts | 250° |
| 2026-04-14 14:26 | 51.13635 | -0.26998 | 2228 ft | 217 kts | 249° |
| 2026-04-14 14:26 | 51.13275 | -0.29334 | 3090 ft | 219 kts | 253° |
| 2026-04-14 14:26 | 51.12974 | -0.31712 | 3981 ft | 220 kts | 254° |
| 2026-04-14 14:27 | 51.12683 | -0.34075 | 4887 ft | 219 kts | 254° |
| 2026-04-14 14:27 | 51.12380 | -0.36460 | 5683 ft | 221 kts | 254° |
| 2026-04-14 14:27 | 51.12167 | -0.38074 | 6266 ft | 220 kts | 253° |
| 2026-04-14 14:27 | 51.11175 | -0.40825 | 7217 ft | 221 kts | 218° |
| 2026-04-14 14:28 | 51.09813 | -0.41883 | 7911 ft | 225 kts | 194° |
| 2026-04-14 14:28 | 51.08225 | -0.41966 | 8582 ft | 234 kts | 176° |
| 2026-04-14 14:28 | 51.06597 | -0.41693 | 9249 ft | 242 kts | 177° |
| 2026-04-14 14:28 | 51.04854 | -0.41436 | 9617 ft | 261 kts | 178° |
| 2026-04-14 14:29 | 51.03005 | -0.41190 | 10198 ft | 270 kts | 178° |
| 2026-04-14 14:29 | 51.01729 | -0.41029 | 10620 ft | 275 kts | 178° |
| 2026-04-14 14:29 | 50.99787 | -0.40799 | 11240 ft | 283 kts | 179° |
| 2026-04-14 14:29 | 50.97824 | -0.40555 | 11964 ft | 285 kts | 178° |
| 2026-04-14 14:30 | 50.95823 | -0.40293 | 12551 ft | 293 kts | 178° |
| 2026-04-14 14:30 | 50.93700 | -0.40015 | 13242 ft | 297 kts | 179° |
| 2026-04-14 14:30 | 50.91708 | -0.39756 | 13877 ft | 302 kts | 179° |
| 2026-04-14 14:30 | 50.89585 | -0.39486 | 14340 ft | 313 kts | 179° |
| 2026-04-14 14:31 | 50.87347 | -0.39209 | 14477 ft | 333 kts | 179° |
| 2026-04-14 14:31 | 50.84976 | -0.38805 | 14683 ft | 352 kts | 172° |
| 2026-04-14 14:31 | 50.82603 | -0.37656 | 15223 ft | 362 kts | 159° |
| 2026-04-14 14:31 | 50.80381 | -0.35716 | 15829 ft | 368 kts | 149° |
| 2026-04-14 14:32 | 50.78236 | -0.33467 | 16424 ft | 372 kts | 149° |
| 2026-04-14 14:32 | 50.76059 | -0.31198 | 16797 ft | 382 kts | 149° |
| 2026-04-14 14:32 | 50.73793 | -0.28852 | 17072 ft | 394 kts | 149° |
| 2026-04-14 14:32 | 50.71491 | -0.26473 | 17633 ft | 397 kts | 149° |
| 2026-04-14 14:33 | 50.69168 | -0.24073 | 18199 ft | 401 kts | 149° |
| 2026-04-14 14:33 | 50.66831 | -0.21627 | 18701 ft | 405 kts | 149° |
| 2026-04-14 14:33 | 50.64471 | -0.19146 | 19128 ft | 410 kts | 148° |
| 2026-04-14 14:33 | 50.62092 | -0.16648 | 19613 ft | 413 kts | 148° |
| 2026-04-14 14:34 | 50.57285 | -0.11616 | 20506 ft | 421 kts | 148° |
| 2026-04-14 14:34 | 50.54829 | -0.09051 | 20926 ft | 426 kts | 148° |
| 2026-04-14 14:34 | 50.52347 | -0.06464 | 21350 ft | 430 kts | 148° |
| 2026-04-14 14:35 | 50.49839 | -0.03853 | 21777 ft | 434 kts | 148° |
| 2026-04-14 14:35 | 50.47307 | -0.01221 | 22210 ft | 439 kts | 148° |
| 2026-04-14 14:35 | 50.44743 | 0.01441 | 22525 ft | 445 kts | 148° |
| 2026-04-14 14:35 | 50.42148 | 0.04130 | 22958 ft | 449 kts | 148° |
| 2026-04-14 14:36 | 50.39529 | 0.06841 | 23346 ft | 453 kts | 148° |
| 2026-04-14 14:36 | 50.36887 | 0.09574 | 23737 ft | 457 kts | 148° |
| 2026-04-14 14:36 | 50.34212 | 0.12333 | 23954 ft | 465 kts | 148° |
| 2026-04-14 14:36 | 50.31483 | 0.15143 | 24059 ft | 475 kts | 148° |
| 2026-04-14 14:37 | 50.28693 | 0.18011 | 24162 ft | 484 kts | 148° |
| 2026-04-14 14:37 | 50.25850 | 0.20930 | 24264 ft | 493 kts | 148° |
| 2026-04-14 14:37 | 50.22955 | 0.23899 | 24367 ft | 502 kts | 148° |
| 2026-04-14 14:37 | 50.20029 | 0.26896 | 24615 ft | 505 kts | 148° |
| 2026-04-14 14:38 | 50.17081 | 0.29921 | 24933 ft | 507 kts | 147° |
| 2026-04-14 14:38 | 50.14133 | 0.32954 | 25209 ft | 510 kts | 147° |
| 2026-04-14 14:38 | 50.11163 | 0.36007 | 25480 ft | 513 kts | 147° |
| 2026-04-14 14:38 | 50.08209 | 0.39037 | 25742 ft | 515 kts | 147° |
| 2026-04-14 14:39 | 50.05173 | 0.42146 | 26003 ft | 518 kts | 147° |
| 2026-04-14 14:39 | 50.02154 | 0.45231 | 26257 ft | 520 kts | 147° |
| 2026-04-14 14:39 | 49.99114 | 0.48331 | 26416 ft | 525 kts | 147° |
| 2026-04-14 14:39 | 49.96050 | 0.51450 | 26634 ft | 527 kts | 147° |
| 2026-04-14 14:40 | 49.92981 | 0.54570 | 26881 ft | 528 kts | 147° |
| 2026-04-14 14:40 | 49.89942 | 0.57655 | 27057 ft | 530 kts | 147° |
| 2026-04-14 14:40 | 49.86853 | 0.60786 | 27226 ft | 532 kts | 147° |
| 2026-04-14 14:40 | 49.83781 | 0.63935 | 27475 ft | 525 kts | 145° |
| 2026-04-14 14:41 | 49.80818 | 0.67188 | 27788 ft | 522 kts | 144° |
| 2026-04-14 14:41 | 49.77879 | 0.70501 | 28031 ft | 524 kts | 143° |
| 2026-04-14 14:41 | 49.74920 | 0.73832 | 28135 ft | 527 kts | 143° |
| 2026-04-14 14:42 | 49.68965 | 0.80459 | 28150 ft | 527 kts | 144° |
| 2026-04-14 14:42 | 49.62997 | 0.87029 | 28147 ft | 527 kts | 144° |
| 2026-04-14 14:43 | 49.57010 | 0.93590 | 28522 ft | 528 kts | 144° |
| 2026-04-14 14:43 | 49.54022 | 0.96857 | 28851 ft | 527 kts | 144° |
| 2026-04-14 14:43 | 49.51030 | 1.00123 | 29056 ft | 528 kts | 143° |
| 2026-04-14 14:43 | 49.48026 | 1.03400 | 29161 ft | 531 kts | 143° |
| 2026-04-14 14:44 | 49.45046 | 1.06644 | 29183 ft | 534 kts | 143° |
| 2026-04-14 14:44 | 49.38969 | 1.13246 | 29185 ft | 535 kts | 144° |
| 2026-04-14 14:45 | 49.32891 | 1.19828 | 29182 ft | 535 kts | 144° |
| 2026-04-14 14:45 | 49.26805 | 1.26397 | 29181 ft | 534 kts | 143° |
| 2026-04-14 14:46 | 49.20722 | 1.32944 | 29193 ft | 534 kts | 144° |
| 2026-04-14 14:46 | 49.14655 | 1.39455 | 29168 ft | 533 kts | 144° |
| 2026-04-14 14:47 | 49.08578 | 1.45956 | 29172 ft | 533 kts | 144° |
| 2026-04-14 14:47 | 49.02499 | 1.52437 | 29173 ft | 533 kts | 144° |
| 2026-04-14 14:48 | 48.96456 | 1.58864 | 29171 ft | 533 kts | 144° |
| 2026-04-14 14:48 | 48.90331 | 1.65357 | 29173 ft | 533 kts | 144° |
| 2026-04-14 14:49 | 48.84248 | 1.71785 | 29173 ft | 533 kts | 144° |
| 2026-04-14 14:49 | 48.78148 | 1.78213 | 29180 ft | 535 kts | 144° |
| 2026-04-14 14:50 | 48.72040 | 1.84630 | 29178 ft | 534 kts | 144° |
| 2026-04-14 14:50 | 48.65926 | 1.91033 | 29182 ft | 534 kts | 144° |
| 2026-04-14 14:51 | 48.59808 | 1.97422 | 29186 ft | 534 kts | 144° |
| 2026-04-14 14:51 | 48.53696 | 2.03785 | 29182 ft | 534 kts | 144° |
| 2026-04-14 14:52 | 48.47575 | 2.10139 | 29177 ft | 534 kts | 144° |
| 2026-04-14 14:52 | 48.41449 | 2.16479 | 29193 ft | 535 kts | 144° |
| 2026-04-14 14:53 | 48.35289 | 2.22835 | 29180 ft | 537 kts | 144° |
| 2026-04-14 14:53 | 48.28952 | 2.28768 | 29185 ft | 538 kts | 154° |
| 2026-04-14 14:54 | 48.21941 | 2.32599 | 29187 ft | 536 kts | 166° |
| 2026-04-14 14:54 | 48.14704 | 2.35429 | 29191 ft | 538 kts | 166° |
| 2026-04-14 14:55 | 48.07570 | 2.38818 | 29199 ft | 538 kts | 162° |
| 2026-04-14 14:55 | 48.00460 | 2.42369 | 29202 ft | 538 kts | 162° |
| 2026-04-14 14:56 | 47.89791 | 2.47660 | 29202 ft | 539 kts | 162° |
| 2026-04-14 14:56 | 47.82711 | 2.51156 | 29201 ft | 539 kts | 162° |
| 2026-04-14 14:57 | 47.75578 | 2.54666 | 29197 ft | 542 kts | 162° |
| 2026-04-14 14:57 | 47.68419 | 2.58181 | 29196 ft | 542 kts | 162° |
| 2026-04-14 14:58 | 47.61256 | 2.61687 | 29199 ft | 542 kts | 162° |
| 2026-04-14 14:58 | 47.54082 | 2.65189 | 29202 ft | 543 kts | 162° |
| 2026-04-14 14:59 | 47.46912 | 2.68678 | 29200 ft | 543 kts | 162° |
| 2026-04-14 14:59 | 47.39734 | 2.72161 | 29200 ft | 543 kts | 162° |
| 2026-04-14 15:00 | 47.32545 | 2.75639 | 29206 ft | 545 kts | 162° |
| 2026-04-14 15:00 | 47.25345 | 2.79113 | 29205 ft | 544 kts | 162° |
| 2026-04-14 15:01 | 47.18151 | 2.82575 | 29195 ft | 544 kts | 162° |
| 2026-04-14 15:01 | 47.10954 | 2.86026 | 29200 ft | 544 kts | 161° |
| 2026-04-14 15:02 | 47.03747 | 2.89471 | 29186 ft | 545 kts | 161° |
| 2026-04-14 15:02 | 46.96541 | 2.92909 | 29188 ft | 545 kts | 161° |
| 2026-04-14 15:03 | 46.89373 | 2.96317 | 29183 ft | 546 kts | 161° |
| 2026-04-14 15:03 | 46.82153 | 2.99741 | 29190 ft | 546 kts | 161° |
| 2026-04-14 15:04 | 46.74925 | 3.03159 | 29190 ft | 546 kts | 161° |
| 2026-04-14 15:04 | 46.67691 | 3.06569 | 29191 ft | 546 kts | 161° |
| 2026-04-14 15:05 | 46.60472 | 3.09963 | 29187 ft | 545 kts | 161° |
| 2026-04-14 15:05 | 46.53246 | 3.13353 | 29189 ft | 545 kts | 161° |
| 2026-04-14 15:06 | 46.46105 | 3.17148 | 29187 ft | 546 kts | 158° |
| 2026-04-14 15:06 | 46.39010 | 3.21059 | 29209 ft | 546 kts | 158° |
| 2026-04-14 15:07 | 46.31895 | 3.24900 | 29184 ft | 546 kts | 158° |
| 2026-04-14 15:07 | 46.24765 | 3.28716 | 29184 ft | 546 kts | 158° |
| 2026-04-14 15:08 | 46.17637 | 3.32518 | 29184 ft | 546 kts | 158° |
| 2026-04-14 15:08 | 46.10504 | 3.36313 | 29185 ft | 547 kts | 158° |
| 2026-04-14 15:09 | 46.03367 | 3.40099 | 29183 ft | 547 kts | 158° |
| 2026-04-14 15:09 | 45.96225 | 3.43877 | 29181 ft | 547 kts | 158° |
| 2026-04-14 15:10 | 45.89114 | 3.47629 | 29180 ft | 548 kts | 158° |
| 2026-04-14 15:10 | 45.81867 | 3.51029 | 29177 ft | 549 kts | 161° |
| 2026-04-14 15:11 | 45.74554 | 3.54177 | 29175 ft | 549 kts | 161° |
| 2026-04-14 15:11 | 45.67227 | 3.57326 | 29172 ft | 549 kts | 161° |
| 2026-04-14 15:12 | 45.59904 | 3.60467 | 29167 ft | 550 kts | 161° |
| 2026-04-14 15:12 | 45.52575 | 3.63600 | 29163 ft | 549 kts | 161° |
| 2026-04-14 15:13 | 45.45257 | 3.66720 | 29159 ft | 549 kts | 161° |
| 2026-04-14 15:13 | 45.37947 | 3.69830 | 29155 ft | 548 kts | 161° |
| 2026-04-14 15:14 | 45.31815 | 3.72432 | 29150 ft | 548 kts | 160° |
| 2026-04-14 15:14 | 45.28276 | 3.74398 | 29155 ft | 545 kts | 149° |
| 2026-04-14 15:14 | 45.25073 | 3.77179 | 29156 ft | 537 kts | 138° |
| 2026-04-14 15:15 | 45.22310 | 3.80676 | 29155 ft | 528 kts | 127° |
| 2026-04-14 15:15 | 45.20082 | 3.84746 | 29191 ft | 517 kts | 115° |
| 2026-04-14 15:15 | 45.18371 | 3.89145 | 29149 ft | 506 kts | 110° |
| 2026-04-14 15:15 | 45.16792 | 3.93533 | 29152 ft | 508 kts | 111° |
| 2026-04-14 15:16 | 45.13266 | 4.02263 | 29161 ft | 512 kts | 115° |
| 2026-04-14 15:16 | 45.09439 | 4.10780 | 29153 ft | 513 kts | 116° |
| 2026-04-14 15:17 | 45.05546 | 4.19234 | 29143 ft | 513 kts | 117° |
| 2026-04-14 15:17 | 45.01234 | 4.27271 | 29139 ft | 515 kts | 128° |
| 2026-04-14 15:18 | 44.96362 | 4.34730 | 29123 ft | 516 kts | 127° |
| 2026-04-14 15:18 | 44.91513 | 4.42170 | 29124 ft | 515 kts | 127° |
| 2026-04-14 15:19 | 44.86655 | 4.49610 | 29109 ft | 516 kts | 127° |
| 2026-04-14 15:19 | 44.81796 | 4.57030 | 29104 ft | 515 kts | 128° |
| 2026-04-14 15:20 | 44.76974 | 4.64377 | 29100 ft | 509 kts | 128° |
| 2026-04-14 15:20 | 44.72157 | 4.71695 | 29103 ft | 510 kts | 128° |
| 2026-04-14 15:21 | 44.67332 | 4.79005 | 29095 ft | 510 kts | 128° |
| 2026-04-14 15:21 | 44.62519 | 4.86309 | 29090 ft | 509 kts | 127° |
| 2026-04-14 15:22 | 44.57858 | 4.93785 | 29062 ft | 509 kts | 126° |
| 2026-04-14 15:22 | 44.53246 | 5.01210 | 29059 ft | 501 kts | 127° |
| 2026-04-14 15:23 | 44.48658 | 5.08542 | 29049 ft | 503 kts | 126° |
| 2026-04-14 15:23 | 44.46700 | 5.12534 | 29043 ft | 496 kts | 113° |
| 2026-04-14 15:23 | 44.45355 | 5.16928 | 29045 ft | 487 kts | 102° |
| 2026-04-14 15:24 | 44.44669 | 5.21545 | 29029 ft | 480 kts | 90° |
| 2026-04-14 15:24 | 44.44496 | 5.26188 | 29022 ft | 476 kts | 86° |
| 2026-04-14 15:24 | 44.44480 | 5.35460 | 29012 ft | 477 kts | 86° |
| 2026-04-14 15:25 | 44.43842 | 5.44723 | 29013 ft | 485 kts | 103° |
| 2026-04-14 15:25 | 44.42612 | 5.49133 | 28997 ft | 490 kts | 114° |
| 2026-04-14 15:25 | 44.40771 | 5.53163 | 28995 ft | 495 kts | 126° |
| 2026-04-14 15:26 | 44.36088 | 5.60261 | 28983 ft | 497 kts | 131° |
| 2026-04-14 15:26 | 44.31290 | 5.67213 | 28961 ft | 497 kts | 131° |
| 2026-04-14 15:27 | 44.26570 | 5.74221 | 28961 ft | 488 kts | 131° |
| 2026-04-14 15:27 | 44.21947 | 5.81125 | 28945 ft | 489 kts | 131° |
| 2026-04-14 15:28 | 44.17314 | 5.88033 | 28920 ft | 486 kts | 131° |
| 2026-04-14 15:28 | 44.15012 | 5.91458 | 28637 ft | 480 kts | 131° |
| 2026-04-14 15:28 | 44.12756 | 5.94811 | 28488 ft | 468 kts | 131° |
| 2026-04-14 15:29 | 44.10559 | 5.98070 | 28226 ft | 456 kts | 131° |
| 2026-04-14 15:29 | 44.08398 | 6.01274 | 27610 ft | 452 kts | 131° |
| 2026-04-14 15:29 | 44.06259 | 6.04446 | 27009 ft | 448 kts | 132° |
| 2026-04-14 15:29 | 44.04140 | 6.07582 | 26461 ft | 442 kts | 132° |
| 2026-04-14 15:30 | 44.02041 | 6.10685 | 25872 ft | 438 kts | 132° |
| 2026-04-14 15:30 | 43.99960 | 6.13758 | 25268 ft | 435 kts | 132° |
| 2026-04-14 15:30 | 43.97891 | 6.16808 | 24680 ft | 432 kts | 132° |
| 2026-04-14 15:30 | 43.95832 | 6.19840 | 24093 ft | 429 kts | 132° |
| 2026-04-14 15:31 | 43.93810 | 6.22817 | 23539 ft | 426 kts | 132° |
| 2026-04-14 15:31 | 43.91764 | 6.25823 | 22913 ft | 423 kts | 132° |
| 2026-04-14 15:31 | 43.89754 | 6.28776 | 22336 ft | 419 kts | 132° |
| 2026-04-14 15:31 | 43.87765 | 6.31692 | 21718 ft | 413 kts | 132° |
| 2026-04-14 15:32 | 43.85806 | 6.34562 | 21065 ft | 405 kts | 132° |
| 2026-04-14 15:32 | 43.83893 | 6.37361 | 20431 ft | 396 kts | 132° |
| 2026-04-14 15:32 | 43.82019 | 6.40100 | 19818 ft | 387 kts | 132° |
| 2026-04-14 15:32 | 43.80195 | 6.42762 | 19357 ft | 375 kts | 132° |
| 2026-04-14 15:33 | 43.78417 | 6.45354 | 18760 ft | 368 kts | 132° |
| 2026-04-14 15:33 | 43.76664 | 6.47895 | 18160 ft | 362 kts | 134° |
| 2026-04-14 15:33 | 43.74612 | 6.49857 | 17498 ft | 359 kts | 155° |
| 2026-04-14 15:33 | 43.72254 | 6.50921 | 16845 ft | 354 kts | 162° |
| 2026-04-14 15:34 | 43.69887 | 6.51792 | 16198 ft | 350 kts | 167° |
| 2026-04-14 15:34 | 43.67490 | 6.52287 | 15572 ft | 347 kts | 172° |
| 2026-04-14 15:34 | 43.65109 | 6.52635 | 14954 ft | 343 kts | 173° |
| 2026-04-14 15:34 | 43.62752 | 6.52978 | 14353 ft | 339 kts | 173° |
| 2026-04-14 15:35 | 43.60419 | 6.53312 | 13757 ft | 335 kts | 173° |
| 2026-04-14 15:35 | 43.58109 | 6.53648 | 13086 ft | 332 kts | 173° |
| 2026-04-14 15:35 | 43.55819 | 6.53973 | 12432 ft | 330 kts | 173° |
| 2026-04-14 15:35 | 43.53542 | 6.54292 | 11805 ft | 328 kts | 173° |
| 2026-04-14 15:36 | 43.51277 | 6.54611 | 11174 ft | 325 kts | 173° |
| 2026-04-14 15:36 | 43.49061 | 6.54822 | 10588 ft | 323 kts | 177° |
| 2026-04-14 15:36 | 43.46824 | 6.54882 | 9986 ft | 320 kts | 178° |
| 2026-04-14 15:36 | 43.44575 | 6.54925 | 9333 ft | 318 kts | 178° |
| 2026-04-14 15:37 | 43.42409 | 6.55070 | 8702 ft | 314 kts | 169° |
| 2026-04-14 15:37 | 43.40296 | 6.55781 | 8066 ft | 312 kts | 163° |
| 2026-04-14 15:37 | 43.38230 | 6.56654 | 7423 ft | 309 kts | 154° |
| 2026-04-14 15:37 | 43.36472 | 6.58269 | 6806 ft | 302 kts | 133° |
| 2026-04-14 15:38 | 43.35322 | 6.60628 | 6237 ft | 295 kts | 114° |
| 2026-04-14 15:38 | 43.34559 | 6.63219 | 5670 ft | 291 kts | 104° |
| 2026-04-14 15:38 | 43.34231 | 6.65913 | 5216 ft | 282 kts | 89° |
| 2026-04-14 15:38 | 43.34571 | 6.68510 | 4803 ft | 263 kts | 70° |
| 2026-04-14 15:39 | 43.35128 | 6.70770 | 4401 ft | 240 kts | 70° |
| 2026-04-14 15:39 | 43.35731 | 6.72837 | 3833 ft | 228 kts | 64° |
| 2026-04-14 15:39 | 43.36440 | 6.74744 | 3267 ft | 219 kts | 62° |
| 2026-04-14 15:39 | 43.37209 | 6.76508 | 2728 ft | 211 kts | 57° |
| 2026-04-14 15:40 | 43.38032 | 6.78162 | 2297 ft | 206 kts | 55° |
| 2026-04-14 15:40 | 43.38867 | 6.79709 | 2266 ft | 198 kts | 54° |
| 2026-04-14 15:40 | 43.39680 | 6.81204 | 2155 ft | 197 kts | 55° |
| 2026-04-14 15:40 | 43.40505 | 6.82718 | 2065 ft | 198 kts | 55° |
| 2026-04-14 15:41 | 43.41336 | 6.84235 | 1965 ft | 198 kts | 54° |
| 2026-04-14 15:41 | 43.42128 | 6.85713 | 1962 ft | 187 kts | 55° |
| 2026-04-14 15:41 | 43.42917 | 6.87162 | 1958 ft | 192 kts | 53° |
| 2026-04-14 15:41 | 43.43713 | 6.88553 | 1960 ft | 179 kts | 53° |
| 2026-04-14 15:42 | 43.44483 | 6.89891 | 1960 ft | 178 kts | 53° |
| 2026-04-14 15:42 | 43.45260 | 6.91229 | 1967 ft | 181 kts | 52° |
| 2026-04-14 15:42 | 43.46064 | 6.92539 | 1965 ft | 178 kts | 51° |
| 2026-04-14 15:42 | 43.46870 | 6.93835 | 1962 ft | 178 kts | 50° |
| 2026-04-14 15:43 | 43.47716 | 6.95096 | 1965 ft | 179 kts | 47° |
| 2026-04-14 15:43 | 43.48588 | 6.96324 | 1967 ft | 180 kts | 51° |
| 2026-04-14 15:43 | 43.49269 | 6.97748 | 1969 ft | 180 kts | 62° |
| 2026-04-14 15:43 | 43.49896 | 6.99218 | 1966 ft | 178 kts | 58° |
| 2026-04-14 15:44 | 43.50636 | 7.00536 | 1955 ft | 167 kts | 50° |
| 2026-04-14 15:44 | 43.51426 | 7.01686 | 1969 ft | 166 kts | 47° |
| 2026-04-14 15:44 | 43.52136 | 7.02655 | 1974 ft | 159 kts | 46° |
| 2026-04-14 15:44 | 43.52905 | 7.03699 | 1964 ft | 156 kts | 46° |
| 2026-04-14 15:45 | 43.53675 | 7.04747 | 1966 ft | 156 kts | 46° |
| 2026-04-14 15:45 | 43.54448 | 7.05798 | 1966 ft | 156 kts | 47° |
| 2026-04-14 15:45 | 43.55217 | 7.06845 | 1967 ft | 156 kts | 46° |
| 2026-04-14 15:45 | 43.55991 | 7.07899 | 1960 ft | 156 kts | 46° |
| 2026-04-14 15:46 | 43.56760 | 7.08944 | 1970 ft | 156 kts | 46° |
| 2026-04-14 15:46 | 43.57532 | 7.09995 | 1965 ft | 156 kts | 47° |
| 2026-04-14 15:46 | 43.58305 | 7.11049 | 1963 ft | 156 kts | 46° |
| 2026-04-14 15:46 | 43.59077 | 7.12099 | 1962 ft | 156 kts | 46° |
| 2026-04-14 15:47 | 43.59842 | 7.13141 | 1959 ft | 154 kts | 46° |
| 2026-04-14 15:47 | 43.60606 | 7.14183 | 1954 ft | 153 kts | 46° |
| 2026-04-14 15:47 | 43.61374 | 7.15230 | 1749 ft | 158 kts | 45° |
| 2026-04-14 15:47 | 43.62153 | 7.16291 | 1515 ft | 157 kts | 46° |
| 2026-04-14 15:48 | 43.62929 | 7.17366 | 1163 ft | 159 kts | 46° |
| 2026-04-14 15:48 | 43.63688 | 7.18410 | 844 ft | 153 kts | 45° |
| 2026-04-14 15:48 | 43.64464 | 7.19444 | 538 ft | 157 kts | 45° |
| 2026-04-14 15:48 | 43.65261 | 7.20508 | 152 ft | 159 kts | 46° |
| 2026-04-14 15:49 | 43.65997 | 7.21535 | 21 ft | 125 kts | 44° |
| 2026-04-14 15:49 | 43.66330 | 7.21939 | 23 ft | 35 kts | 27° |
| 2026-04-14 15:49 | 43.66492 | 7.22051 | 21 ft | 0 kts | 20° |
| 2026-04-14 15:50 | 43.66496 | 7.22053 | 21 ft | 5 kts | 20° |
| 2026-04-14 15:50 | 43.66559 | 7.22008 | 21 ft | 13 kts | 284° |
| 2026-04-14 15:50 | 43.66509 | 7.21912 | 21 ft | 14 kts | 224° |
| 2026-04-14 15:51 | 43.66429 | 7.21802 | 21 ft | 18 kts | 225° |
| 2026-04-14 15:51 | 43.66339 | 7.21678 | 21 ft | 19 kts | 225° |
| 2026-04-14 15:51 | 43.66244 | 7.21546 | 21 ft | 20 kts | 226° |
| 2026-04-14 15:51 | 43.66145 | 7.21408 | 21 ft | 21 kts | 225° |
| 2026-04-14 15:52 | 43.66042 | 7.21265 | 21 ft | 21 kts | 224° |
| 2026-04-14 15:52 | 43.65952 | 7.21110 | 21 ft | 18 kts | 276° |
| 2026-04-14 15:52 | 43.66055 | 7.21050 | 21 ft | 18 kts | 353° |
| 2026-04-14 15:52 | 43.66185 | 7.21026 | 21 ft | 20 kts | 348° |
| 2026-04-14 15:53 | 43.66307 | 7.21043 | 21 ft | 18 kts | 68° |
| 2026-04-14 15:53 | 43.66376 | 7.21071 | 21 ft | 10 kts | 351° |
| 2026-04-14 15:53 | 43.66393 | 7.21067 | 21 ft | 0 kts | 351° |
| 2026-04-14 15:54 | 43.66387 | 7.21020 | 22 ft | 0 kts | 3° |